메인 페이지
METAR-TAF:

METAR-TAF

공항 :

몬테레 Del Norte, 멕시코

위도: 25-52N, 경도: 100-14W, 고도: 448m

현재 날씨관측

예보는 5 시간 7분 전, 05:40시(UTC)에 발표되었습니다.
10kt
온도 28°C
습도 74%
기압 1015 hPa
시정: 8.0km
고도 2000ft 상공 흐림

METAR: MMAN 300540Z 10010KT 5SM OVC020 28/23 A2996 RMK SLP/// 5//// 9// 8/5// HZY OCNL DROPS

시각: 05:47 (10:47 UTC)

예보

예보는 4 시간 53분 전, 05:54시(UTC)에 발표되었습니다.
예보 대상 시간: 30일 06시부터 31일 06시까지 (UTC)
10kt
시정: 8.0km
고도 3000ft 상공 흐림
연무
30일 1000시부터 (UTC)
kt
시정: 6.4km
고도 1500ft 상공 흐림
연무
일시적
30일 11시부터 30일 15시까지 (UTC)
시정: 3.2km
고도 1000ft 상공 구름 많음
박무
30일 1500시부터 (UTC)
동남동5kt
시정: 8.0km
고도 2000ft 상공 구름 보통
연무
30일 1800시부터 (UTC)
남남동10kt
시정: 9.7km
고도 3000ft 상공 구름 보통
연무
일시적
30일 20시부터 30일 23시까지 (UTC)
남남동15kt
고도 3000ft 상공 구름 보통, 적란운.
31일 0000시부터 (UTC)
동남동10kt
시정: 10km
고도 3000ft 상공 구름 보통

TAF: MMAN 300554Z 3006/3106 10010KT 5SM HZ OVC030 FM301000 00000KT 4SM HZ OVC015 TEMPO 3011/3015 2SM BR BKN010 FM301500 12005KT 5SM HZ SCT020 FM301800 15010KT 6SM HZ SCT030 TEMPO 3020/3023 15015KT SCT030CB FM310000 12010KT P6SM SCT030

4,000개 이상의 공항 관측 자료 및 예보 (METAR 및 TAF 보고).

지도상에서 검색 가능한 기상관측소가 노란 점과 빨간 점으로 표시되어 있습니다.

기상관측소 명을 보려면 표시 위로 마우스를 이동하세요.

날씨 관측과 예보를 보려면 클릭하세요.

지도 변경 : 확대하려면 엑스 표시가 있는 녹색 버튼, 축소하려면 빼기 표시가 있는 녹색 버튼, 다음 페이지의 지도를 보려면 녹색 화살표를 클릭하세요.


METAR-TAF: